createdAt,value
2022-10-01T00:00:29.626Z,63.73
2022-10-01T00:02:55.772Z,63.55
2022-10-01T00:05:22.005Z,63.55
2022-10-01T00:07:48.110Z,63.70
2022-10-01T00:10:14.209Z,63.48
2022-10-01T00:12:40.314Z,63.65
2022-10-01T00:15:07.116Z,63.56
2022-10-01T00:17:34.287Z,63.51
2022-10-01T00:20:00.420Z,63.63
2022-10-01T00:22:26.540Z,63.65
2022-10-01T00:24:52.643Z,63.49
2022-10-01T00:27:18.748Z,63.60
2022-10-01T00:29:44.831Z,63.46
2022-10-01T00:32:10.910Z,63.42
2022-10-01T00:34:37.015Z,63.39
2022-10-01T00:37:03.116Z,63.56
2022-10-01T00:39:29.228Z,63.55
2022-10-01T00:41:55.838Z,63.58
2022-10-01T00:44:21.920Z,63.57
2022-10-01T00:46:48.013Z,63.59
2022-10-01T00:49:14.130Z,63.54
2022-10-01T00:51:40.253Z,63.61
2022-10-01T00:54:06.365Z,63.73
2022-10-01T00:56:32.521Z,63.66
2022-10-01T00:58:58.601Z,63.63
2022-10-01T01:01:24.747Z,63.69
2022-10-01T01:03:50.905Z,63.89
2022-10-01T01:06:17.001Z,63.93
2022-10-01T01:08:43.097Z,63.88
2022-10-01T01:11:09.291Z,63.76
2022-10-01T01:13:35.423Z,64.14
2022-10-01T01:16:01.596Z,64.01
2022-10-01T01:18:27.758Z,63.94
2022-10-01T01:20:53.831Z,63.95
2022-10-01T01:23:19.918Z,64.08
2022-10-01T01:25:46.042Z,64.21
2022-10-01T01:28:12.264Z,64.05
2022-10-01T01:30:38.720Z,64.13
2022-10-01T01:33:04.862Z,64.13
2022-10-01T01:35:30.954Z,64.43
2022-10-01T01:37:57.045Z,64.51
2022-10-01T01:40:23.157Z,64.87
2022-10-01T01:42:49.239Z,65.32
2022-10-01T01:45:15.327Z,65.81
2022-10-01T01:47:41.709Z,66.58
2022-10-01T01:50:07.801Z,67.09
2022-10-01T01:52:33.894Z,67.67
2022-10-01T01:55:00.004Z,68.11
2022-10-01T01:57:26.104Z,68.45
2022-10-01T01:59:52.191Z,69.00
2022-10-01T02:02:18.309Z,69.30
2022-10-01T02:04:44.415Z,69.91
2022-10-01T02:07:10.496Z,70.38
2022-10-01T02:09:36.629Z,70.62
2022-10-01T02:12:02.704Z,70.95
2022-10-01T02:14:28.776Z,71.38
2022-10-01T02:16:55.241Z,71.57
2022-10-01T02:19:21.332Z,71.88
2022-10-01T02:21:47.432Z,72.24
2022-10-01T02:24:13.552Z,72.65
2022-10-01T02:26:39.730Z,72.63
2022-10-01T02:29:05.873Z,72.96
2022-10-01T02:31:32.269Z,73.44
2022-10-01T02:33:58.679Z,73.60
2022-10-01T02:36:24.944Z,73.78
2022-10-01T02:38:51.201Z,74.07
2022-10-01T02:41:17.368Z,74.20
2022-10-01T02:43:43.479Z,74.77
2022-10-01T02:46:09.730Z,74.52
2022-10-01T02:48:38.920Z,74.72
2022-10-01T02:51:05.113Z,74.99
2022-10-01T02:53:32.415Z,75.01
2022-10-01T02:55:58.605Z,75.23
2022-10-01T02:58:24.781Z,75.26
2022-10-01T03:00:51.112Z,75.48
2022-10-01T03:03:17.343Z,75.59
2022-10-01T03:05:43.433Z,75.84
2022-10-01T03:08:09.569Z,75.99
2022-10-01T03:10:35.701Z,76.17
2022-10-01T03:13:01.803Z,76.41
2022-10-01T03:15:27.956Z,76.58
2022-10-01T03:17:54.067Z,76.91
2022-10-01T03:20:20.408Z,77.11
2022-10-01T03:22:46.567Z,77.23
2022-10-01T03:25:12.665Z,77.83
2022-10-01T03:27:38.786Z,77.87
2022-10-01T03:30:04.916Z,78.01
2022-10-01T03:32:31.014Z,78.26
2022-10-01T03:34:57.108Z,78.46
2022-10-01T03:37:23.241Z,78.65
2022-10-01T03:39:49.688Z,78.75
2022-10-01T03:42:15.854Z,78.91
2022-10-01T03:44:41.994Z,78.89
2022-10-01T03:47:08.162Z,79.32
2022-10-01T03:49:34.274Z,79.27
2022-10-01T03:52:00.906Z,79.26
2022-10-01T03:54:27.060Z,79.50
2022-10-01T03:56:53.155Z,79.46
2022-10-01T03:59:19.371Z,79.64
2022-10-01T04:01:45.715Z,79.68
2022-10-01T04:04:13.386Z,79.85
2022-10-01T04:06:39.724Z,79.90
2022-10-01T04:09:06.257Z,80.09
2022-10-01T04:11:32.648Z,80.11
2022-10-01T04:13:58.995Z,80.29
2022-10-01T04:16:25.291Z,80.59
2022-10-01T04:18:51.700Z,81.00
2022-10-01T04:21:17.879Z,80.88
2022-10-01T04:23:43.999Z,81.14
2022-10-01T04:26:10.095Z,81.15
2022-10-01T04:28:36.253Z,81.31
2022-10-01T04:31:02.364Z,81.33
2022-10-01T04:33:28.453Z,81.65
2022-10-01T04:35:56.532Z,81.46
2022-10-01T04:38:22.688Z,81.71
2022-10-01T04:40:48.804Z,81.90
2022-10-01T04:43:15.065Z,82.23
2022-10-01T04:45:41.281Z,82.17
2022-10-01T04:48:07.481Z,82.19
2022-10-01T04:50:33.807Z,82.20
2022-10-01T04:52:59.961Z,82.14
2022-10-01T04:55:26.114Z,82.16
2022-10-01T04:57:52.317Z,82.21
2022-10-01T05:00:18.421Z,82.22
2022-10-01T05:02:45.995Z,82.10
2022-10-01T05:05:12.176Z,82.28
2022-10-01T05:07:38.724Z,82.28
2022-10-01T05:10:04.840Z,82.16
2022-10-01T05:12:31.082Z,82.20
2022-10-01T05:14:57.174Z,82.21
2022-10-01T05:17:23.285Z,82.37
2022-10-01T05:19:49.389Z,82.30
2022-10-01T05:22:15.473Z,82.36
2022-10-01T05:24:41.564Z,82.25
2022-10-01T05:27:07.704Z,82.33
2022-10-01T05:29:33.803Z,82.32
2022-10-01T05:31:59.915Z,82.33
2022-10-01T05:34:26.089Z,82.31
2022-10-01T05:36:52.170Z,82.45
2022-10-01T05:39:18.332Z,82.46
2022-10-01T05:41:44.445Z,82.40
2022-10-01T05:44:10.529Z,82.51
2022-10-01T05:46:36.616Z,82.56
2022-10-01T05:49:02.728Z,82.48
2022-10-01T05:51:28.951Z,82.65
2022-10-01T05:53:55.053Z,82.47
2022-10-01T05:56:21.218Z,82.55
2022-10-01T05:58:47.492Z,82.52
2022-10-01T06:01:13.617Z,82.62
2022-10-01T06:03:39.728Z,82.64
2022-10-01T06:06:05.816Z,82.79
2022-10-01T06:08:32.088Z,82.93
2022-10-01T06:10:58.200Z,83.04
2022-10-01T06:13:24.290Z,83.03
2022-10-01T06:15:50.373Z,83.16
2022-10-01T06:18:16.491Z,83.20
2022-10-01T06:20:42.589Z,83.25
2022-10-01T06:23:08.742Z,83.49
2022-10-01T06:25:34.917Z,83.51
2022-10-01T06:28:01.093Z,83.43
2022-10-01T06:30:27.347Z,83.66
2022-10-01T06:32:53.471Z,83.59
2022-10-01T06:35:19.567Z,83.78
2022-10-01T06:37:45.680Z,83.68
2022-10-01T06:40:11.822Z,83.74
2022-10-01T06:42:37.917Z,83.80
2022-10-01T06:45:04.036Z,83.82
2022-10-01T06:47:30.143Z,84.03
2022-10-01T06:49:56.216Z,83.89
2022-10-01T06:52:22.308Z,84.05
2022-10-01T06:54:48.408Z,84.23
2022-10-01T06:57:14.502Z,84.37
2022-10-01T06:59:40.597Z,84.33
2022-10-01T07:02:07.288Z,84.46
2022-10-01T07:04:33.409Z,84.43
2022-10-01T07:06:59.750Z,84.62
2022-10-01T07:09:25.946Z,84.62
2022-10-01T07:11:52.028Z,84.78
2022-10-01T07:14:18.116Z,84.95
2022-10-01T07:16:44.265Z,84.89
2022-10-01T07:19:10.489Z,84.79
2022-10-01T07:21:36.902Z,84.89
2022-10-01T07:24:03.383Z,84.87
2022-10-01T07:26:29.474Z,84.93
2022-10-01T07:28:55.609Z,84.90
2022-10-01T07:31:21.829Z,84.89
2022-10-01T07:33:48.022Z,84.97
2022-10-01T07:36:14.138Z,85.05
2022-10-01T07:38:40.241Z,85.03
2022-10-01T07:41:06.333Z,84.96
2022-10-01T07:43:32.416Z,85.05
2022-10-01T07:45:58.585Z,84.75
2022-10-01T07:48:24.747Z,84.85
2022-10-01T07:50:51.077Z,84.76
2022-10-01T07:53:17.215Z,84.92
2022-10-01T07:55:43.319Z,84.98
2022-10-01T07:58:09.415Z,85.00
2022-10-01T08:00:35.538Z,85.05
2022-10-01T08:03:01.629Z,85.11
2022-10-01T08:05:27.714Z,85.12
2022-10-01T08:07:53.874Z,85.27
2022-10-01T08:10:19.960Z,85.27
2022-10-01T08:12:46.065Z,85.37
2022-10-01T08:15:12.220Z,85.43
2022-10-01T08:17:38.405Z,85.55
2022-10-01T08:20:04.590Z,85.78
2022-10-01T08:22:31.213Z,85.76
2022-10-01T08:24:57.369Z,85.72
2022-10-01T08:27:23.478Z,85.77
2022-10-01T08:29:49.706Z,85.79
2022-10-01T08:32:15.909Z,85.81
2022-10-01T08:34:42.062Z,85.89
2022-10-01T08:37:08.204Z,86.08
2022-10-01T08:39:34.419Z,85.91
2022-10-01T08:42:00.667Z,86.14
2022-10-01T08:47:06.917Z,85.85
2022-10-01T08:49:35.455Z,85.78
2022-10-01T08:52:01.712Z,85.60
2022-10-01T08:54:27.815Z,85.44
2022-10-01T08:56:54.019Z,85.41
2022-10-01T08:59:24.077Z,85.15
2022-10-01T09:01:52.907Z,85.27
2022-10-01T09:04:19.180Z,84.98
2022-10-01T09:06:45.371Z,84.84
2022-10-01T09:09:11.524Z,84.81
2022-10-01T09:11:37.847Z,84.69
2022-10-01T09:14:04.156Z,84.71
2022-10-01T09:16:30.401Z,84.40
2022-10-01T09:18:56.607Z,84.26
2022-10-01T09:21:22.695Z,83.69
2022-10-01T09:23:48.826Z,83.83
2022-10-01T09:26:25.638Z,83.92
2022-10-01T09:28:51.990Z,83.50
2022-10-01T09:31:18.198Z,83.68
2022-10-01T09:33:44.345Z,83.57
2022-10-01T09:36:10.418Z,83.21
2022-10-01T09:38:36.525Z,83.21
2022-10-01T09:41:02.615Z,82.82
2022-10-01T09:43:28.697Z,82.81
2022-10-01T09:45:55.060Z,82.95
2022-10-01T09:48:22.721Z,82.92
2022-10-01T09:50:48.822Z,83.03
2022-10-01T09:53:14.945Z,82.57
2022-10-01T09:55:41.034Z,82.55
2022-10-01T09:58:07.118Z,82.56
2022-10-01T10:00:33.220Z,82.08
2022-10-01T10:02:59.389Z,82.20
2022-10-01T10:05:25.596Z,82.07
2022-10-01T10:07:51.712Z,82.00
2022-10-01T10:10:21.002Z,82.05
2022-10-01T10:12:49.465Z,82.17
2022-10-01T10:15:16.079Z,82.11
2022-10-01T10:17:42.169Z,82.40
2022-10-01T10:20:08.241Z,82.57
2022-10-01T10:22:34.352Z,82.32
2022-10-01T10:25:00.435Z,82.61
2022-10-01T10:27:26.528Z,82.50
2022-10-01T10:29:53.051Z,82.88
2022-10-01T10:32:19.154Z,82.79
2022-10-01T10:34:45.237Z,83.30
2022-10-01T10:37:11.346Z,83.34
2022-10-01T10:39:37.448Z,83.88
2022-10-01T10:42:03.548Z,83.92
2022-10-01T10:44:29.683Z,84.35
2022-10-01T10:46:55.870Z,84.60
2022-10-01T10:49:22.001Z,84.67
2022-10-01T10:51:48.116Z,84.92
2022-10-01T10:54:14.226Z,85.40
2022-10-01T10:56:40.321Z,85.51
2022-10-01T10:59:06.417Z,85.58
2022-10-01T11:01:32.739Z,85.64
2022-10-01T11:03:59.035Z,85.43
2022-10-01T11:06:25.135Z,85.33
2022-10-01T11:08:51.220Z,85.40
2022-10-01T11:11:17.304Z,85.16
2022-10-01T11:13:43.428Z,85.26
2022-10-01T11:16:09.554Z,85.18
2022-10-01T11:18:35.700Z,84.78
2022-10-01T11:21:01.815Z,84.82
2022-10-01T11:23:27.905Z,84.67
2022-10-01T11:25:54.009Z,84.45
2022-10-01T11:28:20.158Z,84.35
2022-10-01T11:30:46.304Z,83.77
2022-10-01T11:33:12.394Z,83.55
2022-10-01T11:35:38.487Z,83.55
2022-10-01T11:38:04.568Z,83.22
2022-10-01T11:40:30.665Z,83.05
2022-10-01T11:42:56.767Z,82.64
2022-10-01T11:45:22.852Z,82.67
2022-10-01T11:47:48.952Z,82.50
2022-10-01T11:50:15.047Z,82.00
2022-10-01T11:52:41.181Z,81.77
2022-10-01T11:55:07.284Z,81.33
2022-10-01T11:57:33.425Z,80.94
2022-10-01T11:59:59.505Z,80.64
2022-10-01T12:02:25.633Z,80.17
2022-10-01T12:04:51.753Z,79.85
2022-10-01T12:07:17.829Z,79.46
2022-10-01T12:09:43.926Z,79.08
2022-10-01T12:12:10.058Z,78.65
2022-10-01T12:14:36.145Z,78.72
2022-10-01T12:17:02.230Z,78.30
2022-10-01T12:19:28.384Z,77.97
2022-10-01T12:21:54.475Z,77.30
2022-10-01T12:24:20.569Z,76.94
2022-10-01T12:26:46.733Z,76.63
2022-10-01T12:29:12.826Z,76.71
2022-10-01T12:31:38.997Z,76.59
2022-10-01T12:34:05.192Z,76.66
2022-10-01T12:36:31.486Z,76.65
2022-10-01T12:38:57.946Z,76.60
2022-10-01T12:41:24.056Z,76.57
2022-10-01T12:43:50.194Z,76.75
2022-10-01T12:46:16.487Z,76.40
2022-10-01T12:48:42.726Z,76.00
2022-10-01T12:51:08.811Z,76.04
2022-10-01T12:53:34.916Z,76.11
2022-10-01T12:56:01.019Z,77.23
2022-10-01T12:58:27.113Z,79.81
2022-10-01T13:00:53.234Z,81.88
2022-10-01T13:03:19.518Z,83.62
2022-10-01T13:05:46.625Z,85.59
2022-10-01T13:08:12.817Z,87.03
2022-10-01T13:10:39.063Z,88.62
2022-10-01T13:13:05.198Z,89.79
2022-10-01T13:15:31.286Z,91.06
2022-10-01T13:17:57.426Z,91.71
2022-10-01T13:20:23.507Z,92.65
2022-10-01T13:22:49.666Z,93.24
2022-10-01T13:25:15.974Z,93.80
2022-10-01T13:27:42.093Z,94.63
2022-10-01T13:30:08.294Z,95.17
2022-10-01T13:32:34.925Z,95.60
2022-10-01T13:35:01.022Z,96.08
2022-10-01T13:37:27.123Z,96.38
2022-10-01T13:39:53.249Z,96.64
2022-10-01T13:42:19.356Z,97.19
2022-10-01T13:44:45.441Z,97.38
2022-10-01T13:47:11.546Z,97.95
2022-10-01T13:49:37.632Z,97.96
2022-10-01T13:52:03.723Z,98.24
2022-10-01T13:54:29.828Z,98.63
2022-10-01T13:56:55.919Z,99.08
2022-10-01T13:59:22.012Z,99.23
2022-10-01T14:01:48.140Z,99.34
2022-10-01T14:04:14.278Z,99.56
2022-10-01T14:06:40.368Z,99.48
2022-10-01T14:09:06.487Z,99.82
2022-10-01T14:11:32.577Z,99.79
2022-10-01T14:13:58.664Z,99.55
2022-10-01T14:16:24.817Z,99.32
2022-10-01T14:18:50.946Z,98.67
2022-10-01T14:21:17.049Z,98.21
2022-10-01T14:23:43.192Z,97.70
2022-10-01T14:26:09.281Z,97.02
2022-10-01T14:28:35.391Z,96.51
2022-10-01T14:31:01.996Z,95.62
2022-10-01T14:33:28.104Z,94.87
2022-10-01T14:35:54.207Z,94.54
2022-10-01T14:38:21.120Z,93.57
2022-10-01T14:40:47.220Z,92.77
2022-10-01T14:43:13.323Z,91.98
2022-10-01T14:45:39.439Z,91.40
2022-10-01T14:48:05.526Z,90.66
2022-10-01T14:50:31.603Z,89.86
2022-10-01T14:52:57.713Z,88.40
2022-10-01T14:55:23.802Z,87.20
2022-10-01T14:57:49.887Z,85.76
2022-10-01T15:00:16.012Z,84.67
2022-10-01T15:02:42.108Z,83.52
2022-10-01T15:05:08.240Z,82.54
2022-10-01T15:07:34.397Z,81.44
2022-10-01T15:10:00.486Z,80.36
2022-10-01T15:12:26.577Z,79.66
2022-10-01T15:14:52.677Z,78.89
2022-10-01T15:17:18.754Z,78.68
2022-10-01T15:19:44.845Z,78.48
2022-10-01T15:22:10.960Z,78.18
2022-10-01T15:24:37.039Z,78.20
2022-10-01T15:27:03.111Z,77.85
2022-10-01T15:29:29.232Z,78.52
2022-10-01T15:31:55.367Z,80.25
2022-10-01T15:34:21.468Z,82.22
2022-10-01T15:36:47.636Z,84.53
2022-10-01T15:39:13.748Z,86.22
2022-10-01T15:41:39.840Z,87.90
2022-10-01T15:44:05.979Z,89.04
2022-10-01T15:46:32.217Z,90.53
2022-10-01T15:48:58.476Z,91.52
2022-10-01T15:51:24.568Z,92.14
2022-10-01T15:53:50.653Z,92.94
2022-10-01T15:56:16.766Z,93.51
2022-10-01T15:58:42.892Z,94.18
2022-10-01T16:01:09.062Z,94.61
2022-10-01T16:03:35.203Z,95.18
2022-10-01T16:06:01.292Z,95.80
2022-10-01T16:08:27.360Z,96.00
2022-10-01T16:13:39.496Z,96.71
2022-10-01T16:16:05.700Z,96.75
2022-10-01T16:18:31.834Z,97.18
2022-10-01T16:20:57.958Z,97.03
2022-10-01T16:23:24.163Z,97.63
2022-10-01T16:25:50.239Z,97.98
2022-10-01T16:28:16.398Z,98.14
2022-10-01T16:30:42.533Z,98.06
2022-10-01T16:33:08.633Z,98.37
2022-10-01T16:35:34.793Z,98.63
2022-10-01T16:38:00.880Z,98.73
2022-10-01T16:40:26.959Z,98.91
2022-10-01T16:42:54.795Z,98.70
2022-10-01T16:45:21.025Z,99.05
2022-10-01T16:47:47.213Z,98.81
2022-10-01T16:50:13.382Z,99.21
2022-10-01T16:52:39.476Z,99.26
2022-10-01T16:55:05.642Z,99.01
2022-10-01T16:57:35.990Z,99.04
2022-10-01T17:00:02.075Z,99.17
2022-10-01T17:02:28.255Z,99.23
2022-10-01T17:04:54.409Z,99.12
2022-10-01T17:07:20.510Z,99.53
2022-10-01T17:09:46.588Z,99.22
2022-10-01T17:12:12.686Z,99.35
2022-10-01T17:14:38.779Z,99.40
2022-10-01T17:17:04.872Z,99.59
2022-10-01T17:19:30.991Z,99.40
2022-10-01T17:21:57.077Z,99.41
2022-10-01T17:24:23.177Z,99.51
2022-10-01T17:26:49.288Z,99.75
2022-10-01T17:29:15.381Z,99.71
2022-10-01T17:31:43.411Z,99.61
2022-10-01T17:34:09.543Z,99.37
2022-10-01T17:36:35.811Z,99.66
2022-10-01T17:39:02.074Z,99.65
2022-10-01T17:41:28.211Z,99.68
2022-10-01T17:43:54.291Z,99.81
2022-10-01T17:46:20.408Z,99.79
2022-10-01T17:48:46.551Z,99.84
2022-10-01T17:51:12.627Z,99.91
2022-10-01T17:53:42.588Z,99.94
2022-10-01T17:56:08.977Z,99.85
2022-10-01T17:58:35.056Z,100.00
2022-10-01T18:01:01.173Z,100.00
2022-10-01T18:03:27.317Z,100.00
2022-10-01T18:05:53.415Z,100.00
2022-10-01T18:08:29.419Z,99.96
2022-10-01T18:11:04.497Z,100.00
2022-10-01T18:13:30.589Z,100.00
2022-10-01T18:15:56.702Z,99.99
2022-10-01T18:19:51.391Z,100.00
2022-10-01T18:21:08.897Z,99.98
2022-10-01T18:23:34.994Z,99.89
2022-10-01T18:26:01.093Z,100.00
2022-10-01T18:28:27.254Z,99.82
2022-10-01T18:30:53.408Z,99.93
2022-10-01T18:33:19.498Z,99.79
2022-10-01T18:35:45.587Z,99.74
2022-10-01T18:38:11.696Z,99.73
2022-10-01T18:40:37.777Z,99.55
2022-10-01T18:43:03.868Z,99.65
2022-10-01T18:45:30.357Z,99.43
2022-10-01T18:47:56.503Z,99.39
2022-10-01T18:50:22.599Z,99.45
2022-10-01T18:52:48.715Z,99.18
2022-10-01T18:55:17.710Z,99.15
2022-10-01T18:57:46.970Z,99.07
2022-10-01T19:00:13.089Z,99.04
2022-10-01T19:02:39.174Z,99.08
2022-10-01T19:05:05.263Z,99.01
2022-10-01T19:07:31.390Z,98.80
2022-10-01T19:09:57.475Z,98.88
2022-10-01T19:12:23.568Z,98.62
2022-10-01T19:14:49.659Z,98.73
2022-10-01T19:17:15.757Z,98.65
2022-10-01T19:19:41.845Z,98.57
2022-10-01T19:22:07.945Z,98.33
2022-10-01T19:24:34.055Z,98.48
2022-10-01T19:27:00.149Z,98.37
2022-10-01T19:29:26.237Z,98.48
2022-10-01T19:31:52.415Z,98.35
2022-10-01T19:34:18.546Z,98.25
2022-10-01T19:36:44.648Z,98.43
2022-10-01T19:39:10.747Z,98.43
2022-10-01T19:41:36.845Z,98.32
2022-10-01T19:44:02.945Z,98.39
2022-10-01T19:46:29.054Z,98.39
2022-10-01T19:48:55.154Z,98.37
2022-10-01T19:51:21.249Z,98.21
2022-10-01T19:53:47.331Z,98.32
2022-10-01T19:56:13.435Z,98.38
2022-10-01T19:58:39.539Z,98.24
2022-10-01T20:01:05.677Z,98.09
2022-10-01T20:03:31.810Z,98.10
2022-10-01T20:05:57.912Z,98.05
2022-10-01T20:08:23.988Z,98.09
2022-10-01T20:10:50.093Z,97.89
2022-10-01T20:13:16.216Z,97.84
2022-10-01T20:15:42.313Z,97.94
2022-10-01T20:18:08.388Z,98.02
2022-10-01T20:20:34.487Z,97.89
2022-10-01T20:23:00.592Z,97.52
2022-10-01T20:25:26.669Z,97.68
2022-10-01T20:27:52.795Z,97.20
2022-10-01T20:30:18.896Z,97.04
2022-10-01T20:32:44.968Z,96.85
2022-10-01T20:35:11.086Z,96.66
2022-10-01T20:37:37.177Z,96.25
2022-10-01T20:40:03.263Z,95.99
2022-10-01T20:42:29.379Z,95.79
2022-10-01T20:44:55.460Z,95.43
2022-10-01T20:47:21.545Z,95.10
2022-10-01T20:49:47.988Z,94.97
2022-10-01T20:52:14.070Z,94.54
2022-10-01T20:54:40.146Z,94.31
2022-10-01T20:57:06.306Z,94.17
2022-10-01T20:59:32.398Z,93.90
2022-10-01T21:01:58.510Z,93.56
2022-10-01T21:04:24.666Z,93.26
2022-10-01T21:06:50.816Z,93.05
2022-10-01T21:09:16.977Z,92.70
2022-10-01T21:11:46.213Z,92.67
2022-10-01T21:14:12.318Z,92.36
2022-10-01T21:16:38.642Z,92.22
2022-10-01T21:19:04.829Z,92.17
2022-10-01T21:21:30.922Z,92.04
2022-10-01T21:23:57.142Z,91.90
2022-10-01T21:26:24.742Z,91.71
2022-10-01T21:28:50.969Z,91.51
2022-10-01T21:31:17.133Z,91.42
2022-10-01T21:33:43.277Z,91.33
2022-10-01T21:36:09.357Z,91.23
2022-10-01T21:38:35.428Z,91.00
2022-10-01T21:41:01.520Z,90.69
2022-10-01T21:43:27.607Z,90.70
2022-10-01T21:45:53.727Z,90.56
2022-10-01T21:48:19.840Z,90.43
2022-10-01T21:50:45.938Z,90.53
2022-10-01T21:53:12.022Z,90.36
2022-10-01T21:55:38.142Z,90.06
2022-10-01T21:58:04.220Z,90.02
2022-10-01T22:00:30.303Z,90.12
2022-10-01T22:02:56.418Z,90.08
2022-10-01T22:05:22.527Z,89.90
2022-10-01T22:07:48.617Z,89.87
2022-10-01T22:10:14.732Z,89.74
2022-10-01T22:12:40.810Z,89.60
2022-10-01T22:15:06.910Z,89.45
2022-10-01T22:17:32.998Z,89.64
2022-10-01T22:19:59.079Z,89.66
2022-10-01T22:22:25.149Z,89.60
2022-10-01T22:24:51.259Z,89.31
2022-10-01T22:27:17.339Z,89.08
2022-10-01T22:29:43.419Z,89.25
2022-10-01T22:32:09.515Z,89.23
2022-10-01T22:34:35.601Z,89.06
2022-10-01T22:37:01.683Z,89.03
2022-10-01T22:39:27.816Z,88.99
2022-10-01T22:41:53.912Z,88.70
2022-10-01T22:44:20.005Z,88.87
2022-10-01T22:46:46.114Z,88.74
2022-10-01T22:49:12.210Z,88.68
2022-10-01T22:51:38.311Z,88.40
2022-10-01T22:54:04.998Z,88.55
2022-10-01T22:56:31.106Z,88.50
2022-10-01T22:58:57.196Z,88.44
2022-10-01T23:01:23.645Z,88.48
2022-10-01T23:03:49.763Z,88.63
2022-10-01T23:06:15.851Z,88.17
2022-10-01T23:08:41.978Z,88.15
2022-10-01T23:11:08.064Z,88.14
2022-10-01T23:13:34.160Z,88.00
2022-10-01T23:16:00.341Z,88.03
2022-10-01T23:18:26.482Z,87.71
2022-10-01T23:20:52.571Z,87.81
2022-10-01T23:23:18.697Z,87.40
2022-10-01T23:25:44.783Z,87.51
2022-10-01T23:28:10.978Z,87.35
2022-10-01T23:30:37.148Z,86.93
2022-10-01T23:33:03.241Z,87.32
2022-10-01T23:35:29.322Z,87.11
2022-10-01T23:37:55.433Z,86.90
2022-10-01T23:40:21.511Z,86.94
2022-10-01T23:42:47.614Z,86.83
2022-10-01T23:45:13.731Z,86.87
2022-10-01T23:47:39.829Z,86.84
2022-10-01T23:50:05.909Z,87.03
2022-10-01T23:52:32.010Z,86.80
2022-10-01T23:54:58.097Z,86.83
2022-10-01T23:57:24.180Z,86.99
2022-10-01T23:59:50.629Z,86.85
